Time;durP1;ratioP1;P1;durP2;ratioP2;P2;SDS_P1;SDS_P2;PMS_P1;PMS_P2;Temp;Humidity;BMP_temperature;BMP_pressure;BME280_temperature;BME280_humidity;BME280_pressure;Samples;Min_cycle;Max_cycle;Signal;HPM_P1;HPM_P2
2022/08/10 00:01:13;;;;;;;1.88;1.02;;;;;;;20.41;42.33;99581.03;5153127;27;20132;-81
2022/08/10 00:03:41;;;;;;;1.98;1.25;;;;;;;20.44;42.53;99585.25;5152797;27;20050;-81
2022/08/10 00:06:08;;;;;;;1.20;1.10;;;;;;;20.47;42.47;99593.91;5152176;27;20047;-80
2022/08/10 00:08:35;;;;;;;1.60;1.30;;;;;;;20.34;42.58;99583.09;5153300;27;20047;-81
2022/08/10 00:11:02;;;;;;;1.52;1.20;;;;;;;20.39;42.74;99591.50;5153783;27;20055;-81
2022/08/10 00:13:28;;;;;;;2.97;1.20;;;;;;;20.28;43.11;99567.50;5154123;27;20401;-81
2022/08/10 00:15:55;;;;;;;4.05;1.08;;;;;;;20.40;42.98;99600.63;5153423;27;20089;-81
2022/08/10 00:18:23;;;;;;;7.88;1.40;;;;;;;20.23;43.05;99573.72;5151919;27;20050;-82
2022/08/10 00:20:51;;;;;;;3.70;2.40;;;;;;;20.26;43.26;99595.31;5151280;27;20057;-82
2022/08/10 00:23:18;;;;;;;2.05;1.30;;;;;;;20.31;43.14;99600.16;5149559;27;20416;-81
2022/08/10 00:25:44;;;;;;;3.30;1.10;;;;;;;20.25;43.33;99584.50;5154772;27;20401;-82
2022/08/10 00:28:11;;;;;;;3.63;1.20;;;;;;;20.31;43.25;99592.69;5151423;27;20074;-81
2022/08/10 00:30:38;;;;;;;4.53;1.30;;;;;;;20.34;43.42;99594.97;5153778;27;20056;-81
2022/08/10 00:33:05;;;;;;;1.13;1.02;;;;;;;20.30;43.66;99603.97;5154286;27;20058;-82
2022/08/10 00:35:31;;;;;;;1.58;1.23;;;;;;;20.32;43.68;99585.25;5149904;27;20053;-81
2022/08/10 00:37:59;;;;;;;2.58;1.30;;;;;;;20.25;43.83;99592.78;5154665;27;20049;-81
2022/08/10 00:40:26;;;;;;;2.42;1.02;;;;;;;20.28;43.83;99592.34;5152440;27;20114;-81
2022/08/10 00:42:53;;;;;;;2.58;1.25;;;;;;;20.17;43.91;99569.16;5148836;27;20196;-81
2022/08/10 00:45:19;;;;;;;3.58;1.40;;;;;;;20.07;44.00;99564.22;5151803;27;20054;-81
2022/08/10 00:47:46;;;;;;;1.92;1.25;;;;;;;20.02;44.13;99558.56;5157414;27;20046;-81
2022/08/10 00:50:13;;;;;;;3.42;1.33;;;;;;;20.18;44.25;99592.09;5157666;27;20074;-82
2022/08/10 00:52:40;;;;;;;2.20;1.40;;;;;;;20.15;44.38;99587.88;5152313;27;20043;-81
2022/08/10 00:55:08;;;;;;;3.10;1.27;;;;;;;20.09;44.50;99589.66;5153509;27;20095;-82
2022/08/10 00:57:35;;;;;;;3.38;1.75;;;;;;;19.99;44.67;99572.84;5153467;27;20046;-81
2022/08/10 01:00:03;;;;;;;3.28;1.02;;;;;;;20.07;44.97;99596.50;5154593;27;20478;-82
2022/08/10 01:02:31;;;;;;;2.05;1.40;;;;;;;19.95;44.72;99577.16;5153095;27;20586;-82
2022/08/10 01:04:59;;;;;;;1.33;1.10;;;;;;;20.01;44.82;99592.78;5152993;27;20364;-82
2022/08/10 01:07:40;;;;;;;1.23;1.13;;;;;;;19.90;45.05;99574.25;5153800;27;20517;-82
2022/08/10 01:10:21;;;;;;;1.65;1.10;;;;;;;19.91;44.94;99578.72;5150437;27;20047;-82
2022/08/10 01:12:53;;;;;;;2.13;1.20;;;;;;;19.84;45.34;99587.06;5144569;27;20046;-82
2022/08/10 01:15:24;;;;;;;1.98;1.20;;;;;;;19.79;45.56;99584.19;5150691;27;20525;-82
2022/08/10 01:17:55;;;;;;;1.35;1.10;;;;;;;19.79;45.58;99582.25;5150517;27;20042;-82
2022/08/10 01:20:33;;;;;;;3.17;1.50;;;;;;;19.83;45.70;99590.06;5149102;27;20383;-82
2022/08/10 01:23:34;;;;;;;4.25;1.20;;;;;;;19.65;45.69;99566.97;5142190;27;20050;-82
2022/08/10 01:26:39;;;;;;;2.78;1.30;;;;;;;19.77;45.90;99589.06;5143099;27;20051;-81
2022/08/10 01:29:20;;;;;;;2.05;1.30;;;;;;;19.72;46.12;99595.31;5061330;28;20112;-81
2022/08/10 01:31:51;;;;;;;2.95;1.10;;;;;;;19.73;46.20;99596.97;5135837;27;20057;-81
2022/08/10 01:34:22;;;;;;;4.40;1.30;;;;;;;19.69;46.10;99593.00;5141968;27;20057;-82
2022/08/10 01:36:53;;;;;;;1.38;1.10;;;;;;;19.67;46.39;99588.81;5145417;27;20046;-81
2022/08/10 01:39:23;;;;;;;4.03;1.30;;;;;;;19.44;46.57;99571.09;5148165;27;20378;-82
2022/08/10 01:41:54;;;;;;;1.55;1.40;;;;;;;19.54;46.66;99592.56;5145137;27;20051;-81
2022/08/10 01:44:28;;;;;;;4.13;1.20;;;;;;;19.29;46.89;99563.22;5141129;27;20043;-81
2022/08/10 01:48:27;;;;;;;4.50;1.40;;;;;;;19.39;46.95;99599.34;5151383;27;20042;-81
2022/08/10 01:49:47;;;;;;;1.50;1.08;;;;;;;19.49;47.04;99606.22;5145914;27;20050;-82
2022/08/10 01:52:18;;;;;;;1.48;1.30;;;;;;;19.39;47.19;99585.56;5146959;27;20055;-81
2022/08/10 01:54:46;;;;;;;1.30;1.20;;;;;;;19.29;47.09;99565.97;5152688;27;20066;-81
2022/08/10 01:57:16;;;;;;;1.17;1.00;;;;;;;19.26;47.51;99578.31;5153823;27;20417;-81
2022/08/10 01:59:45;;;;;;;2.63;1.25;;;;;;;19.31;47.38;99577.59;5144778;27;20049;-81
2022/08/10 02:02:15;;;;;;;1.10;1.00;;;;;;;19.36;47.33;99582.41;5153746;27;20130;-82
2022/08/10 02:04:47;;;;;;;1.95;1.10;;;;;;;19.29;47.50;99582.53;5149933;27;20525;-81
2022/08/10 02:07:17;;;;;;;4.07;1.58;;;;;;;19.36;47.60;99591.56;5148554;27;20054;-81
2022/08/10 02:09:51;;;;;;;;;;;;;;;19.29;47.93;99596.31;5141537;27;20482;-81
2022/08/10 02:12:20;;;;;;;4.65;1.10;;;;;;;19.23;47.92;99589.78;5149882;27;19934;-81
2022/08/10 02:14:51;;;;;;;1.70;1.40;;;;;;;19.17;48.23;99589.91;5149289;27;20122;-81
2022/08/10 02:17:25;;;;;;;4.00;1.50;;;;;;;19.09;48.32;99591.88;5154212;27;20129;-82
2022/08/10 02:19:56;;;;;;;4.05;1.27;;;;;;;19.11;48.43;99602.66;5150117;27;20047;-81
2022/08/10 02:22:24;;;;;;;1.05;1.00;;;;;;;19.12;48.39;99603.50;5148287;27;20404;-81
2022/08/10 02:24:52;;;;;;;4.55;1.30;;;;;;;19.05;48.30;99582.38;5154404;27;20046;-81
2022/08/10 02:27:22;;;;;;;6.60;1.42;;;;;;;19.03;48.70;99603.81;5143142;27;20103;-82
2022/08/10 02:29:50;;;;;;;;;;;;;;;19.00;49.14;99598.78;5140629;27;20054;-80
2022/08/10 02:32:20;;;;;;;2.33;1.20;;;;;;;19.03;48.83;99605.72;5142952;27;20437;-81
2022/08/10 02:34:48;;;;;;;4.45;1.30;;;;;;;18.94;49.09;99596.94;5151018;27;20042;-81
2022/08/10 02:37:18;;;;;;;3.10;1.20;;;;;;;18.83;49.52;99592.16;5136689;27;20051;-81
2022/08/10 02:39:44;;;;;;;1.67;1.30;;;;;;;18.80;49.09;99571.41;5135590;27;20043;-81
2022/08/10 02:42:16;;;;;;;1.33;1.00;;;;;;;18.92;49.17;99601.81;5146230;27;20057;-82
2022/08/10 02:44:50;;;;;;;1.60;1.30;;;;;;;18.92;49.19;99612.84;5143119;27;20122;-81
2022/08/10 02:47:25;;;;;;;2.45;1.80;;;;;;;18.77;49.75;99593.88;5143959;27;20401;-81
2022/08/10 02:49:59;;;;;;;2.75;1.17;;;;;;;18.83;49.82;99606.75;5142300;27;20038;-82
2022/08/10 02:52:35;;;;;;;2.72;1.40;;;;;;;18.77;50.09;99602.16;5140870;27;20054;-81
2022/08/10 02:55:21;;;;;;;1.30;1.20;;;;;;;18.61;49.89;99576.06;5150195;27;20107;-81
2022/08/10 02:57:54;;;;;;;1.98;1.73;;;;;;;18.70;50.23;99607.75;5143432;27;20070;-81
2022/08/10 03:00:23;;;;;;;2.22;1.40;;;;;;;18.72;49.79;99594.59;5150073;27;20051;-82
2022/08/10 03:02:53;;;;;;;1.40;1.30;;;;;;;18.66;50.33;99595.50;5147074;27;20066;-81
2022/08/10 03:05:22;;;;;;;2.33;1.48;;;;;;;18.73;50.21;99607.28;5146329;27;20056;-80
2022/08/10 03:07:51;;;;;;;1.40;1.30;;;;;;;18.67;50.32;99599.09;5140288;27;20053;-81
2022/08/10 03:10:21;;;;;;;1.63;1.02;;;;;;;18.60;50.46;99593.66;5141762;27;20050;-81
2022/08/10 03:12:51;;;;;;;3.55;1.38;;;;;;;18.68;50.38;99603.53;5134124;27;20058;-81
2022/08/10 03:15:20;;;;;;;3.45;1.20;;;;;;;18.69;50.47;99608.81;5139434;27;20053;-80
2022/08/10 03:17:49;;;;;;;2.75;1.70;;;;;;;18.54;50.70;99592.66;5149665;27;20050;-81
2022/08/10 03:20:20;;;;;;;3.78;2.10;;;;;;;18.57;50.71;99603.19;5147859;27;20045;-81
2022/08/10 03:22:49;;;;;;;5.22;2.05;;;;;;;18.39;50.89;99583.91;5137607;27;20046;-81
2022/08/10 03:25:18;;;;;;;2.28;1.50;;;;;;;18.47;50.79;99599.28;5148677;27;20054;-81
2022/08/10 03:27:46;;;;;;;1.30;1.10;;;;;;;18.49;51.04;99603.50;5147958;27;20058;-81
2022/08/10 03:30:13;;;;;;;2.75;1.42;;;;;;;18.34;51.16;99581.81;5138060;27;20090;-81
2022/08/10 03:32:41;;;;;;;2.72;1.50;;;;;;;18.48;51.02;99596.31;5148272;27;20043;-81
2022/08/10 03:35:09;;;;;;;3.95;1.58;;;;;;;18.41;51.40;99606.53;5150688;27;20050;-81
2022/08/10 03:37:38;;;;;;;4.68;1.40;;;;;;;18.26;51.31;99575.75;5154161;27;20042;-81
2022/08/10 03:40:06;;;;;;;1.92;1.73;;;;;;;18.33;51.56;99602.16;5152009;27;20049;-81
2022/08/10 03:42:36;;;;;;;1.40;1.30;;;;;;;18.40;51.60;99610.38;5148346;27;20051;-81
2022/08/10 03:45:04;;;;;;;3.90;1.48;;;;;;;18.36;51.73;99614.63;5149937;27;20046;-81
2022/08/10 03:47:33;;;;;;;2.47;1.25;;;;;;;18.28;51.62;99599.25;5150149;27;20070;-81
2022/08/10 03:50:01;;;;;;;5.93;1.33;;;;;;;18.32;51.90;99616.13;5147322;27;20039;-81
2022/08/10 03:52:29;;;;;;;2.17;1.25;;;;;;;18.32;51.83;99610.63;5152680;27;20061;-81
2022/08/10 03:54:58;;;;;;;3.70;1.25;;;;;;;18.28;51.78;99612.19;5155481;27;20038;-81
2022/08/10 03:57:28;;;;;;;3.38;1.48;;;;;;;18.22;51.99;99616.66;5151166;27;20049;-81
2022/08/10 03:59:55;;;;;;;;;;;;;;;18.27;52.07;99630.56;5151861;27;20134;-82
2022/08/10 04:02:22;;;;;;;5.60;1.30;;;;;;;18.15;52.02;99613.09;5154047;27;19975;-81
2022/08/10 04:04:49;;;;;;;1.23;1.02;;;;;;;18.07;52.01;99607.91;5146245;27;20134;-81
2022/08/10 04:07:16;;;;;;;2.88;1.33;;;;;;;18.18;52.08;99629.16;5154080;27;20050;-81
2022/08/10 04:09:43;;;;;;;2.88;1.55;;;;;;;18.06;51.84;99617.22;5145217;27;20469;-81
2022/08/10 04:12:11;;;;;;;1.80;1.33;;;;;;;18.03;52.44;99622.06;5146928;27;20583;-81
2022/08/10 04:14:37;;;;;;;2.13;1.40;;;;;;;18.17;52.22;99628.34;5149688;27;20050;-80
2022/08/10 04:17:04;;;;;;;1.77;1.20;;;;;;;18.11;51.96;99609.13;5152696;27;20047;-80
2022/08/10 04:19:40;;;;;;;1.58;1.30;;;;;;;18.21;51.96;99625.97;5152327;27;20051;-81
2022/08/10 04:22:10;;;;;;;2.60;1.40;;;;;;;18.08;52.34;99626.06;5151744;27;20054;-81
2022/08/10 04:24:39;;;;;;;4.97;1.25;;;;;;;17.94;52.10;99606.91;5155557;27;20042;-81
2022/08/10 04:27:06;;;;;;;2.10;1.00;;;;;;;18.09;52.38;99627.75;5146195;27;20045;-81
2022/08/10 04:29:35;;;;;;;1.63;1.33;;;;;;;18.08;52.61;99631.56;5139582;27;20039;-82
2022/08/10 04:32:03;;;;;;;5.55;1.35;;;;;;;18.05;52.37;99616.38;5148869;27;20065;-81
2022/08/10 04:34:32;;;;;;;2.08;1.20;;;;;;;18.03;52.69;99635.81;5142021;27;20042;-81
2022/08/10 04:37:00;;;;;;;2.23;1.67;;;;;;;18.13;52.47;99634.50;5153487;27;20050;-81
2022/08/10 04:39:27;;;;;;;3.08;1.55;;;;;;;17.92;52.52;99611.78;5150916;27;20042;-81
2022/08/10 04:41:55;;;;;;;2.17;1.30;;;;;;;18.14;52.77;99652.69;5154753;27;20050;-81
2022/08/10 04:44:22;;;;;;;1.83;1.30;;;;;;;18.02;52.54;99627.78;5135480;27;20051;-81
2022/08/10 04:46:50;;;;;;;4.93;1.40;;;;;;;18.09;52.59;99630.50;5149341;27;20050;-81
2022/08/10 04:49:17;;;;;;;4.95;1.40;;;;;;;18.14;52.66;99645.28;5147252;27;20043;-81
2022/08/10 04:51:43;;;;;;;5.70;1.13;;;;;;;18.04;52.37;99609.19;5150778;27;20042;-81
2022/08/10 04:54:10;;;;;;;3.53;1.35;;;;;;;18.14;52.31;99617.78;5153900;27;20497;-81
2022/08/10 04:56:38;;;;;;;4.25;1.20;;;;;;;18.35;52.10;99649.59;5139120;27;20179;-81
2022/08/10 04:59:06;;;;;;;2.22;1.23;;;;;;;18.19;52.01;99606.09;5140931;27;21975;-81
2022/08/10 05:01:34;;;;;;;3.20;1.23;;;;;;;18.40;52.02;99640.66;5147241;27;20192;-81
2022/08/10 05:04:04;;;;;;;2.33;1.50;;;;;;;18.43;51.77;99626.44;5154315;27;20114;-80
2022/08/10 05:06:31;;;;;;;2.53;1.40;;;;;;;18.42;52.32;99634.91;5153391;27;20067;-81
2022/08/10 05:08:57;;;;;;;3.63;1.30;;;;;;;18.36;51.97;99628.41;5149919;27;20567;-81
2022/08/10 05:11:24;;;;;;;3.65;2.28;;;;;;;18.35;51.81;99616.56;5154397;27;20047;-81
2022/08/10 05:13:50;;;;;;;2.33;1.00;;;;;;;18.53;51.47;99615.75;5153718;27;20122;-81
2022/08/10 05:16:17;;;;;;;1.27;1.17;;;;;;;18.70;51.25;99642.72;5138668;27;20070;-81
2022/08/10 05:18:44;;;;;;;2.13;1.30;;;;;;;18.67;51.18;99638.50;5135333;27;20397;-81
2022/08/10 05:21:12;;;;;;;4.95;1.05;;;;;;;18.80;51.38;99647.69;5150135;27;20039;-82
2022/08/10 05:23:39;;;;;;;1.42;1.00;;;;;;;18.86;50.85;99649.56;5150970;27;20125;-82
2022/08/10 05:26:05;;;;;;;1.40;1.20;;;;;;;18.93;50.93;99651.19;5145878;27;20135;-81
2022/08/10 05:28:32;;;;;;;2.95;1.30;;;;;;;18.93;50.65;99647.59;5152056;27;20126;-81
2022/08/10 05:30:59;;;;;;;2.65;1.20;;;;;;;19.12;50.35;99634.69;5154444;27;20602;-81
2022/08/10 05:33:26;;;;;;;1.20;1.10;;;;;;;19.33;48.98;99630.63;5150186;27;20042;-81
2022/08/10 05:35:52;;;;;;;1.55;1.30;;;;;;;19.48;48.90;99630.22;5142244;27;20045;-81
2022/08/10 05:38:22;;;;;;;2.95;1.20;;;;;;;19.50;48.08;99622.53;5141075;27;20043;-81
2022/08/10 05:40:49;;;;;;;;;;;;;;;19.81;48.16;99651.00;5153705;27;20059;-81
2022/08/10 05:43:17;;;;;;;2.30;1.30;;;;;;;19.77;48.21;99630.44;5150244;27;19934;-81
2022/08/10 05:45:44;;;;;;;1.83;1.40;;;;;;;20.01;47.77;99642.44;5141955;27;20397;-81
2022/08/10 05:48:11;;;;;;;2.00;1.25;;;;;;;20.20;47.47;99648.72;5147649;27;20047;-81
2022/08/10 05:50:40;;;;;;;1.52;1.20;;;;;;;20.40;46.14;99648.41;5134669;27;20054;-82
2022/08/10 05:53:06;;;;;;;1.40;1.08;;;;;;;;;;5132547;27;20041;-81
2022/08/10 05:55:41;;;;;;;4.03;1.20;;;;;;;20.72;45.78;99641.75;5137990;27;20053;-82
2022/08/10 05:58:11;;;;;;;1.55;1.25;;;;;;;20.84;45.15;99623.25;5150203;27;20042;-81
2022/08/10 06:00:41;;;;;;;6.18;1.20;;;;;;;21.14;45.11;99627.78;5143367;27;20465;-80
2022/08/10 06:03:08;;;;;;;;;;;;;;;21.50;43.67;99656.22;5146800;27;20039;-81
2022/08/10 06:05:38;;;;;;;1.73;1.02;;;;;;;21.62;43.31;99658.94;5150502;27;19918;-81
2022/08/10 06:08:12;;;;;;;2.65;1.45;;;;;;;21.71;42.76;99654.72;5152413;27;21853;-81
2022/08/10 06:10:41;;;;;;;2.38;1.42;;;;;;;22.04;42.71;99650.31;5144989;27;20350;-81
2022/08/10 06:15:56;;;;;;;3.08;1.10;;;;;;;22.35;41.23;99623.22;5141871;27;20057;-81
2022/08/10 06:18:23;;;;;;;5.35;1.20;;;;;;;22.65;40.86;99635.91;5136161;27;20116;-81
2022/08/10 06:20:51;;;;;;;2.05;1.30;;;;;;;22.62;40.63;99635.28;5142737;27;20343;-82
2022/08/10 06:23:18;;;;;;;2.42;1.27;;;;;;;22.61;40.88;99644.72;5145124;27;20133;-81
2022/08/10 06:25:47;;;;;;;2.80;1.35;;;;;;;22.77;40.42;99653.25;5143359;27;20047;-81
2022/08/10 06:28:16;;;;;;;3.13;1.20;;;;;;;22.97;39.92;99620.31;5144557;27;20074;-82
2022/08/10 06:30:45;;;;;;;3.30;1.15;;;;;;;23.26;39.20;99639.59;5131641;27;20055;-80
2022/08/10 06:33:12;;;;;;;2.58;1.13;;;;;;;23.18;39.10;99628.91;5136438;27;20042;-81
2022/08/10 06:35:41;;;;;;;2.65;1.20;;;;;;;23.23;38.76;99631.78;5146719;27;20038;-81
2022/08/10 06:38:09;;;;;;;1.52;1.23;;;;;;;23.78;38.79;99635.47;5153303;27;20046;-82
2022/08/10 06:40:42;;;;;;;2.00;1.20;;;;;;;24.08;38.24;99650.00;5135461;27;20045;-82
2022/08/10 06:43:15;;;;;;;2.47;1.20;;;;;;;24.00;37.92;99657.69;5133042;27;20057;-82
2022/08/10 06:45:48;;;;;;;1.55;1.15;;;;;;;24.19;37.94;99648.97;5129711;27;20047;-81
2022/08/10 06:48:27;;;;;;;2.95;0.93;;;;;;;24.18;37.17;99628.69;5129795;27;20054;-82
2022/08/10 06:50:57;;;;;;;4.87;1.30;;;;;;;24.55;36.91;99647.38;5142773;27;20046;-82
2022/08/10 06:53:30;;;;;;;1.52;1.17;;;;;;;24.79;36.87;99649.78;5144194;27;20081;-81
2022/08/10 06:56:01;;;;;;;3.78;1.40;;;;;;;24.61;36.69;99653.81;5138501;27;20103;-82
2022/08/10 06:58:36;;;;;;;3.33;1.27;;;;;;;24.64;36.43;99642.16;5135555;27;20198;-81
2022/08/10 07:01:08;;;;;;;3.20;1.70;;;;;;;25.31;35.85;99653.75;5133602;27;20131;-81
2022/08/10 07:03:39;;;;;;;1.85;1.10;;;;;;;25.19;35.98;99651.16;5141879;27;20097;-81
2022/08/10 07:06:16;;;;;;;2.42;1.40;;;;;;;25.12;35.75;99633.03;5134470;27;20513;-82
2022/08/10 07:08:47;;;;;;;1.27;1.00;;;;;;;25.38;35.24;99634.88;5138074;27;20034;-81
2022/08/10 07:11:15;;;;;;;1.50;1.05;;;;;;;25.30;35.48;99657.63;5133703;27;21586;-81
2022/08/10 07:13:46;;;;;;;3.25;1.10;;;;;;;25.43;35.91;99656.31;5147628;27;20113;-81
2022/08/10 07:16:14;;;;;;;2.30;1.15;;;;;;;25.26;34.89;99639.75;5145994;27;20051;-82
2022/08/10 07:18:43;;;;;;;2.35;1.08;;;;;;;25.39;35.27;99660.72;5148493;27;20049;-81
2022/08/10 07:21:12;;;;;;;3.63;1.15;;;;;;;25.46;35.92;99647.41;5153208;27;20050;-81
2022/08/10 07:23:40;;;;;;;1.15;0.90;;;;;;;25.77;35.33;99651.16;5145338;27;20485;-81
2022/08/10 07:26:08;;;;;;;3.08;1.10;;;;;;;26.08;34.20;99656.81;5147241;27;20046;-82
2022/08/10 07:28:49;;;;;;;3.03;0.82;;;;;;;26.16;34.72;99635.09;5145128;27;20046;-81
2022/08/10 07:31:22;;;;;;;3.10;1.52;;;;;;;26.02;34.46;99637.59;5138453;27;20051;-80
2022/08/10 07:33:51;;;;;;;5.78;1.25;;;;;;;26.23;34.24;99635.66;5145011;27;20050;-82
2022/08/10 07:36:22;;;;;;;1.90;1.10;;;;;;;26.11;34.69;99650.69;5138234;27;20368;-79
2022/08/10 07:38:51;;;;;;;2.25;1.17;;;;;;;26.09;34.36;99641.78;5148507;27;20051;-81
2022/08/10 07:41:19;;;;;;;2.25;1.10;;;;;;;25.89;34.68;99645.31;5149002;27;20401;-80
2022/08/10 07:43:47;;;;;;;6.60;1.20;;;;;;;25.90;35.28;99652.56;5143554;27;20473;-81
2022/08/10 07:46:27;;;;;;;2.53;1.35;;;;;;;26.12;35.19;99641.22;5147006;27;20513;-89
2022/08/10 07:49:02;;;;;;;9.30;1.30;;;;;;;25.93;34.05;99640.88;5151137;27;20046;-88
2022/08/10 07:51:43;;;;;;;9.68;1.58;;;;;;;25.81;35.17;99637.50;5150012;27;20058;-88
2022/08/10 07:54:18;;;;;;;6.40;1.42;;;;;;;25.94;34.69;99644.47;5151353;27;20051;-88
2022/08/10 07:56:52;;;;;;;6.53;1.70;;;;;;;25.89;35.14;99636.13;5132728;28;20490;-88
2022/08/10 07:59:39;;;;;;;8.90;1.60;;;;;;;25.74;35.40;99628.56;5141292;27;20071;-88
2022/08/10 08:02:14;;;;;;;4.03;0.95;;;;;;;25.86;34.72;99645.84;5141435;27;20042;-88
2022/08/10 08:04:54;;;;;;;4.65;1.20;;;;;;;25.90;34.92;99646.16;5150854;27;20047;-88
2022/08/10 08:07:22;;;;;;;3.45;1.20;;;;;;;26.21;34.51;99629.53;5152128;27;20051;-87
2022/08/10 08:09:50;;;;;;;11.85;2.15;;;;;;;26.03;34.04;99637.31;5153285;27;20062;-87
2022/08/10 08:12:19;;;;;;;3.30;1.38;;;;;;;25.89;34.33;99636.94;5139308;27;20196;-87
2022/08/10 08:14:52;;;;;;;6.57;1.20;;;;;;;26.23;34.38;99642.06;5145542;27;20042;-88
2022/08/10 08:17:38;;;;;;;3.17;1.00;;;;;;;26.06;34.99;99625.63;5136174;27;21947;-88
2022/08/10 08:20:10;;;;;;;7.93;1.30;;;;;;;26.14;33.79;99624.22;5135161;27;20046;-88
2022/08/10 08:22:40;;;;;;;4.10;1.23;;;;;;;26.16;33.74;99655.44;5143078;27;20446;-88
2022/08/10 08:25:33;;;;;;;2.28;1.30;;;;;;;26.09;34.61;99646.50;5141045;27;20054;-88
2022/08/10 08:28:03;;;;;;;1.73;1.00;;;;;;;26.19;33.47;99656.84;5148909;27;20057;-86
2022/08/10 08:30:32;;;;;;;3.72;1.10;;;;;;;25.67;34.11;99662.25;5153424;27;20074;-85
2022/08/10 08:33:08;;;;;;;2.17;1.23;;;;;;;25.77;33.76;99634.44;5146424;27;20065;-87
2022/08/10 08:35:39;;;;;;;2.70;1.08;;;;;;;25.57;33.76;99628.81;5155680;27;20055;-89
2022/08/10 08:38:06;;;;;;;6.97;1.20;;;;;;;25.80;33.32;99644.19;5150962;27;20099;-85
2022/08/10 08:40:35;;;;;;;1.63;0.90;;;;;;;26.20;33.12;99655.72;5145028;27;20130;-83
2022/08/10 08:43:29;;;;;;;1.27;1.17;;;;;;;26.10;32.36;99623.09;5147602;27;20414;-83
2022/08/10 08:46:45;;;;;;;0.98;0.90;;;;;;;26.30;32.40;99647.34;5137884;27;20074;-85
2022/08/10 08:49:39;;;;;;;1.90;1.00;;;;;;;25.64;33.11;99626.59;5031578;28;20123;-83
2022/08/10 08:52:33;;;;;;;2.13;1.17;;;;;;;25.78;32.99;99650.03;5130219;27;20420;-85
2022/08/10 08:55:12;;;;;;;6.47;1.27;;;;;;;25.64;32.44;99623.81;5142158;27;20548;-82
2022/08/10 08:58:14;;;;;;;;;;;;;;;;;;;;;
2022/08/10 09:01:02;;;;;;;2.53;1.13;;;;;;;25.91;31.92;99615.25;5145938;27;20054;-82
2022/08/10 09:04:03;;;;;;;4.40;1.20;;;;;;;26.13;31.56;99626.16;5149164;27;20453;-82
2022/08/10 09:06:48;;;;;;;3.03;1.00;;;;;;;26.37;30.52;99633.16;5139177;27;20401;-83
2022/08/10 09:09:40;;;;;;;1.63;1.10;;;;;;;26.29;29.11;99627.03;5137028;27;20108;-84
2022/08/10 09:12:30;;;;;;;1.60;1.00;;;;;;;26.48;29.27;99624.53;5134882;27;20047;-83
2022/08/10 09:15:04;;;;;;;3.03;0.90;;;;;;;26.64;29.16;99636.47;5135661;27;20493;-83
2022/08/10 09:23:54;;;;;;;3.35;1.00;;;;;;;26.77;28.43;99623.97;5129298;27;20043;-83
2022/08/10 09:26:46;;;;;;;1.33;1.00;;;;;;;26.52;27.86;99602.50;5132439;27;20142;-83
2022/08/10 09:29:29;;;;;;;2.40;1.20;;;;;;;26.34;28.89;99628.97;5138592;27;20095;-82
2022/08/10 09:32:09;;;;;;;2.00;1.13;;;;;;;26.30;28.89;99594.41;5136969;27;20053;-80
2022/08/10 09:34:50;;;;;;;3.55;1.17;;;;;;;26.72;28.31;99610.00;5149330;27;20575;-81
2022/08/10 09:37:23;;;;;;;2.03;0.90;;;;;;;26.69;28.15;99618.13;5151629;27;20079;-83
2022/08/10 09:40:08;;;;;;;1.83;0.98;;;;;;;26.68;27.98;99611.72;5147308;27;20061;-82
2022/08/10 09:42:42;;;;;;;1.30;1.00;;;;;;;26.80;28.07;99587.16;5147350;27;20038;-81
2022/08/10 09:45:16;;;;;;;3.17;1.05;;;;;;;27.00;27.68;99585.41;5150856;27;20402;-81
2022/08/10 09:47:53;;;;;;;2.40;0.98;;;;;;;26.77;27.45;99604.44;5155272;27;20402;-82
2022/08/10 09:50:26;;;;;;;3.38;1.08;;;;;;;27.10;27.53;99607.72;5140674;27;20482;-81
2022/08/10 09:53:06;;;;;;;3.35;1.20;;;;;;;26.75;27.44;99584.38;5145685;27;20490;-81
2022/08/10 09:55:42;;;;;;;1.88;0.93;;;;;;;26.93;26.87;99573.72;5155006;27;20047;-81
2022/08/10 09:58:27;;;;;;;2.17;1.00;;;;;;;27.13;26.76;99584.81;5151457;27;20086;-81
2022/08/10 10:01:01;;;;;;;1.92;0.80;;;;;;;27.27;27.28;99606.53;5147032;27;20045;-81
2022/08/10 10:03:32;;;;;;;1.30;0.90;;;;;;;27.40;27.74;99579.97;5153522;27;20055;-81
2022/08/10 10:06:05;;;;;;;4.32;1.30;;;;;;;27.43;27.25;99588.63;5137058;27;20051;-82
2022/08/10 10:08:41;;;;;;;2.45;1.00;;;;;;;27.37;27.65;99575.84;5146662;27;20038;-82
2022/08/10 10:11:18;;;;;;;11.77;1.30;;;;;;;27.53;28.42;99593.31;5153583;27;20397;-80
2022/08/10 10:14:01;;;;;;;6.90;1.00;;;;;;;27.86;28.20;99597.31;5153535;27;20046;-81
2022/08/10 10:16:43;;;;;;;2.72;1.13;;;;;;;28.00;27.64;99585.53;5126147;27;20482;-81
2022/08/10 10:19:24;;;;;;;9.68;1.77;;;;;;;28.07;27.49;99570.09;5150487;27;20654;-81
2022/08/10 10:22:03;;;;;;;2.70;1.10;;;;;;;27.79;26.89;99579.22;5153051;27;20047;-82
2022/08/10 10:24:43;;;;;;;1.70;0.90;;;;;;;27.46;27.47;99596.44;5154217;27;20508;-82
2022/08/10 10:27:24;;;;;;;7.82;1.90;;;;;;;27.55;27.70;99574.31;5142398;27;20046;-81
2022/08/10 10:29:59;;;;;;;2.95;1.67;;;;;;;27.71;27.78;99578.69;5145887;27;20074;-82
2022/08/10 10:32:34;;;;;;;2.63;0.80;;;;;;;27.87;27.11;99565.47;5147895;27;20051;-81
2022/08/10 10:35:09;;;;;;;1.52;1.05;;;;;;;28.10;26.10;99568.69;5139470;27;20140;-83
2022/08/10 10:37:37;;;;;;;2.08;1.00;;;;;;;28.30;26.95;99578.03;5151177;27;20057;-81
2022/08/10 10:40:07;;;;;;;9.45;1.08;;;;;;;28.11;26.10;99558.31;5147864;27;20049;-81
2022/08/10 10:42:45;;;;;;;4.03;1.45;;;;;;;28.24;26.36;99564.09;5160788;27;20532;-82
2022/08/10 10:45:18;;;;;;;9.20;1.38;;;;;;;28.36;25.43;99569.28;5144540;27;20049;-82
2022/08/10 10:47:55;;;;;;;1.85;1.00;;;;;;;28.28;24.53;99555.94;5134488;27;20130;-81
2022/08/10 10:50:29;;;;;;;1.92;0.95;;;;;;;28.23;25.09;99533.66;5149159;27;20045;-81
2022/08/10 10:53:08;;;;;;;3.00;0.90;;;;;;;28.35;23.89;99553.66;5146658;27;20049;-82
2022/08/10 10:55:43;;;;;;;2.17;1.08;;;;;;;28.01;23.63;99520.97;5133360;27;20130;-83
2022/08/10 10:58:18;;;;;;;9.40;1.48;;;;;;;27.99;25.22;99536.38;5147089;27;20481;-80
2022/08/10 11:00:54;;;;;;;3.90;0.95;;;;;;;27.88;24.98;99539.22;5140308;27;20046;-81
2022/08/10 11:03:34;;;;;;;2.15;0.93;;;;;;;27.89;25.46;99537.25;5147958;27;20038;-81
2022/08/10 11:06:09;;;;;;;5.82;1.10;;;;;;;28.46;25.03;99547.97;5148739;27;20443;-82
2022/08/10 11:08:40;;;;;;;2.33;0.93;;;;;;;28.70;25.25;99545.25;5144575;27;20118;-83
2022/08/10 11:11:11;;;;;;;1.38;1.10;;;;;;;28.21;25.21;99547.91;5145148;27;20051;-82
2022/08/10 11:13:48;;;;;;;3.65;1.05;;;;;;;28.28;25.43;99549.53;5149539;27;20057;-83
2022/08/10 11:16:24;;;;;;;4.28;1.20;;;;;;;28.56;25.42;99522.69;5148447;27;20084;-83
2022/08/10 11:19:08;;;;;;;6.85;1.10;;;;;;;28.80;25.12;99527.50;5142427;27;20074;-82
2022/08/10 11:21:56;;;;;;;4.75;1.10;;;;;;;29.10;24.77;99529.09;5151484;27;20055;-82
2022/08/10 11:24:38;;;;;;;1.90;1.20;;;;;;;29.20;24.15;99528.13;5150919;27;20050;-83
2022/08/10 11:27:15;;;;;;;3.22;1.00;;;;;;;29.03;24.24;99540.66;5158489;27;20103;-82
2022/08/10 11:30:05;;;;;;;2.80;0.70;;;;;;;28.93;24.71;99546.38;5153517;27;20501;-83
2022/08/10 11:32:57;;;;;;;8.77;1.23;;;;;;;28.70;24.21;99520.06;5149186;27;20417;-81
2022/08/10 11:35:31;;;;;;;4.05;0.98;;;;;;;28.77;24.05;99514.94;5151323;27;20137;-81
2022/08/10 11:38:08;;;;;;;1.45;0.90;;;;;;;29.18;23.66;99510.78;5147157;27;20047;-81
2022/08/10 11:40:43;;;;;;;3.00;1.02;;;;;;;29.61;22.87;99506.03;5135517;27;20482;-82
2022/08/10 11:43:17;;;;;;;1.98;1.23;;;;;;;29.64;22.66;99529.78;5151531;27;20055;-80
2022/08/10 11:45:49;;;;;;;2.80;0.90;;;;;;;29.13;23.28;99526.53;5141423;27;20398;-81
2022/08/10 11:48:22;;;;;;;2.25;0.82;;;;;;;29.44;23.53;99539.31;5153073;27;20073;-81
2022/08/10 11:50:52;;;;;;;3.00;1.13;;;;;;;30.03;23.20;99537.03;5152220;27;20049;-81
2022/08/10 11:53:29;;;;;;;2.00;0.73;;;;;;;30.02;22.76;99538.19;5150778;27;20054;-84
2022/08/10 11:55:58;;;;;;;3.40;1.10;;;;;;;29.99;22.55;99528.41;5155582;27;20091;-82
2022/08/10 12:01:20;;;;;;;7.32;0.98;;;;;;;29.97;22.60;99529.84;5155164;27;20201;-83
2022/08/10 12:03:48;;;;;;;1.48;0.98;;;;;;;30.00;23.15;99518.88;5154838;27;20048;-82
2022/08/10 12:06:19;;;;;;;1.52;1.10;;;;;;;30.15;22.51;99505.72;5155429;27;20134;-82
2022/08/10 12:08:49;;;;;;;3.00;1.00;;;;;;;30.34;22.76;99509.31;5149517;27;20051;-84
2022/08/10 12:11:21;;;;;;;3.53;1.10;;;;;;;30.06;22.76;99521.59;5142913;27;20059;-83
2022/08/10 12:13:55;;;;;;;4.13;1.25;;;;;;;30.29;22.41;99503.81;5134011;27;20098;-82